Time,TemperatureF,DewpointF,PressureIn,WindDirection,WindDirectionDegrees,WindSpeedMPH,WindSpeedGustMPH,Humidity,HourlyPrecipIn,Conditions,Clouds,dailyrainin,SoftwareType,DateUTC
2013-01-23 00:00:00,36.7,12.8,30.49,SE,124,0.0,0.0,37,0.00,,,0.00,Wunderground v.1.15,2013-01-23 07:00:00,
2013-01-23 00:10:00,36.7,12.2,30.49,NE,41,0.0,1.0,36,0.00,,,0.00,Wunderground v.1.15,2013-01-23 07:10:00,
2013-01-23 00:15:00,37.1,11.9,30.49,NNE,15,0.0,1.0,35,0.00,,,0.00,Wunderground v.1.15,2013-01-23 07:15:00,
2013-01-23 00:25:00,38.0,12.1,30.49,NNE,19,1.0,3.0,34,0.00,,,0.00,Wunderground v.1.15,2013-01-23 07:25:00,
2013-01-23 00:30:00,38.4,11.8,30.48,NE,39,2.0,2.0,33,0.00,,,0.00,Wunderground v.1.15,2013-01-23 07:30:00,
2013-01-23 00:40:00,39.1,11.7,30.49,NE,44,2.0,2.0,32,0.00,,,0.00,Wunderground v.1.15,2013-01-23 07:40:00,
2013-01-23 00:50:00,39.9,10.9,30.49,NNE,25,3.0,3.0,30,0.00,,,0.00,Wunderground v.1.15,2013-01-23 07:50:00,
2013-01-23 00:55:00,40.0,11.0,30.48,NNE,24,3.0,3.0,30,0.00,,,0.00,Wunderground v.1.15,2013-01-23 07:55:00,
2013-01-23 01:00:00,40.0,11.0,30.49,North,353,2.0,2.0,30,0.00,,,0.00,Wunderground v.1.15,2013-01-23 08:00:00,
2013-01-23 01:10:00,39.4,10.5,30.48,NNE,16,2.0,2.0,30,0.00,,,0.00,Wunderground v.1.15,2013-01-23 08:10:00,
2013-01-23 01:15:00,38.9,10.1,30.49,NW,307,1.0,2.0,30,0.00,,,0.00,Wunderground v.1.15,2013-01-23 08:15:00,
2013-01-23 01:20:00,38.1,11.5,30.49,NW,304,0.0,0.0,33,0.00,,,0.00,Wunderground v.1.15,2013-01-23 08:20:00,
2013-01-23 01:30:00,36.3,11.9,30.49,WNW,302,0.0,0.0,36,0.00,,,0.00,Wunderground v.1.15,2013-01-23 08:30:00,
2013-01-23 01:40:00,36.8,11.0,30.49,West,273,0.0,0.0,34,0.00,,,0.00,Wunderground v.1.15,2013-01-23 08:40:00,
2013-01-23 01:45:00,36.7,10.9,30.49,NNE,23,0.0,0.0,34,0.00,,,0.00,Wunderground v.1.15,2013-01-23 08:45:00,
2013-01-23 01:55:00,39.1,11.0,30.49,NNE,29,4.0,7.0,31,0.00,,,0.00,Wunderground v.1.15,2013-01-23 08:55:00,
2013-01-23 02:00:00,39.8,10.8,30.49,ESE,107,6.0,6.0,30,0.00,,,0.00,Wunderground v.1.15,2013-01-23 09:00:00,
2013-01-23 02:10:00,40.4,12.1,30.49,NNE,26,6.0,7.0,31,0.00,,,0.00,Wunderground v.1.15,2013-01-23 09:10:00,
2013-01-23 02:20:00,39.9,12.4,30.49,NNE,21,4.0,5.0,32,0.00,,,0.00,Wunderground v.1.15,2013-01-23 09:20:00,
2013-01-23 02:30:00,39.2,11.8,30.49,NNE,19,4.0,4.0,32,0.00,,,0.00,Wunderground v.1.15,2013-01-23 09:30:00,
2013-01-23 02:35:00,39.0,11.6,30.49,North,356,2.0,4.0,32,0.00,,,0.00,Wunderground v.1.15,2013-01-23 09:35:00,
2013-01-23 02:45:00,38.6,11.2,30.49,North,5,3.0,3.0,32,0.00,,,0.00,Wunderground v.1.15,2013-01-23 09:45:00,
2013-01-23 02:50:00,38.4,11.8,30.49,NNE,22,3.0,3.0,33,0.00,,,0.00,Wunderground v.1.15,2013-01-23 09:50:00,
2013-01-23 02:55:00,38.1,11.5,30.49,North,355,2.0,3.0,33,0.00,,,0.00,Wunderground v.1.15,2013-01-23 09:55:00,
2013-01-23 03:00:00,37.7,11.8,30.49,NW,314,1.0,1.0,34,0.00,,,0.00,Wunderground v.1.15,2013-01-23 10:00:00,
2013-01-23 03:10:00,37.1,12.6,30.49,NW,309,1.0,1.0,36,0.00,,,0.00,Wunderground v.1.15,2013-01-23 10:10:00,
2013-01-23 03:15:00,36.9,12.4,30.49,NW,323,1.0,1.0,36,0.00,,,0.00,Wunderground v.1.15,2013-01-23 10:15:00,
2013-01-23 03:25:00,36.1,12.3,30.49,NNE,32,0.0,1.0,37,0.00,,,0.00,Wunderground v.1.15,2013-01-23 10:25:00,
2013-01-23 03:35:00,34.3,11.9,30.49,SSW,208,0.0,0.0,39,0.00,,,0.00,Wunderground v.1.15,2013-01-23 10:35:00,
2013-01-23 03:40:00,33.5,12.3,30.49,SSW,210,0.0,0.0,41,0.00,,,0.00,Wunderground v.1.15,2013-01-23 10:40:00,
2013-01-23 03:50:00,31.7,12.2,30.49,WSW,257,0.0,0.0,44,0.00,,,0.00,Wunderground v.1.15,2013-01-23 10:50:00,
2013-01-23 04:00:00,29.9,12.1,30.50,West,264,0.0,0.0,47,0.00,,,0.00,Wunderground v.1.15,2013-01-23 11:00:00,
2013-01-23 04:10:00,28.6,12.3,30.50,NW,320,1.0,1.0,50,0.00,,,0.00,Wunderground v.1.15,2013-01-23 11:10:00,
2013-01-23 04:20:00,27.9,12.5,30.51,NNW,338,0.0,0.0,52,0.00,,,0.00,Wunderground v.1.15,2013-01-23 11:20:00,
2013-01-23 04:25:00,27.5,12.2,30.51,SSE,167,0.0,2.0,52,0.00,,,0.00,Wunderground v.1.15,2013-01-23 11:25:00,
2013-01-23 04:35:00,26.6,11.7,30.50,SE,131,0.0,0.0,53,0.00,,,0.00,Wunderground v.1.15,2013-01-23 11:35:00,
2013-01-23 04:40:00,26.3,11.9,30.50,SE,144,0.0,0.0,54,0.00,,,0.00,Wunderground v.1.15,2013-01-23 11:40:00,
2013-01-23 04:50:00,25.7,12.2,30.50,SW,219,0.0,0.0,56,0.00,,,0.00,Wunderground v.1.15,2013-01-23 11:50:00,
2013-01-23 05:00:00,25.1,11.6,30.51,SE,127,0.0,0.0,56,0.00,,,0.00,Wunderground v.1.15,2013-01-23 12:00:00,
2013-01-23 05:10:00,24.9,11.8,30.51,SE,125,0.0,0.0,57,0.00,,,0.00,Wunderground v.1.15,2013-01-23 12:10:00,
2013-01-23 05:20:00,24.2,11.5,30.52,SE,125,0.0,0.0,58,0.00,,,0.00,Wunderground v.1.15,2013-01-23 12:20:00,
2013-01-23 05:30:00,23.6,11.7,30.53,SE,127,0.0,0.0,60,0.00,,,0.00,Wunderground v.1.15,2013-01-23 12:30:00,
2013-01-23 05:40:00,23.8,11.9,30.53,SE,125,0.0,0.0,60,0.00,,,0.00,Wunderground v.1.15,2013-01-23 12:40:00,
2013-01-23 05:45:00,23.7,11.8,30.54,SE,125,0.0,0.0,60,0.00,,,0.00,Wunderground v.1.15,2013-01-23 12:45:00,
2013-01-23 05:55:00,23.7,11.8,30.55,SE,125,0.0,0.0,60,0.00,,,0.00,Wunderground v.1.15,2013-01-23 12:55:00,
2013-01-23 06:00:00,23.5,12.0,30.55,SE,125,0.0,0.0,61,0.00,,,0.00,Wunderground v.1.15,2013-01-23 13:00:00,
2013-01-23 06:10:00,23.8,12.7,30.55,SE,125,0.0,0.0,62,0.00,,,0.00,Wunderground v.1.15,2013-01-23 13:10:00,
2013-01-23 06:15:00,24.2,13.0,30.55,SE,125,0.0,0.0,62,0.00,,,0.00,Wunderground v.1.15,2013-01-23 13:15:00,
2013-01-23 06:25:00,25.0,13.1,30.54,ESE,110,0.0,0.0,60,0.00,,,0.00,Wunderground v.1.15,2013-01-23 13:25:00,
2013-01-23 06:30:00,25.3,12.6,30.53,SE,125,0.0,0.0,58,0.00,,,0.00,Wunderground v.1.15,2013-01-23 13:30:00,
2013-01-23 06:40:00,25.7,12.6,30.53,SE,145,1.0,1.0,57,0.00,,,0.00,Wunderground v.1.15,2013-01-23 13:40:00,
2013-01-23 06:50:00,26.2,12.6,30.53,SE,145,1.0,1.0,56,0.00,,,0.00,Wunderground v.1.15,2013-01-23 13:50:00,
2013-01-23 07:00:00,25.7,12.2,30.53,West,267,0.0,0.0,56,0.00,,,0.00,Wunderground v.1.15,2013-01-23 14:00:00,
2013-01-23 07:10:00,24.8,12.5,30.55,NNW,335,1.0,3.0,59,0.00,,,0.00,Wunderground v.1.15,2013-01-23 14:10:00,
2013-01-23 07:15:00,24.6,12.7,30.55,North,8,2.0,3.0,60,0.00,,,0.00,Wunderground v.1.15,2013-01-23 14:15:00,
2013-01-23 07:20:00,24.7,12.8,30.55,NNE,12,1.0,2.0,60,0.00,,,0.00,Wunderground v.1.15,2013-01-23 14:20:00,
2013-01-23 07:25:00,24.8,12.9,30.56,NNE,13,1.0,3.0,60,0.00,,,0.00,Wunderground v.1.15,2013-01-23 14:25:00,
2013-01-23 07:30:00,25.0,13.1,30.56,North,8,3.0,4.0,60,0.00,,,0.00,Wunderground v.1.15,2013-01-23 14:30:00,
2013-01-23 07:35:00,25.3,13.0,30.56,NE,34,3.0,4.0,59,0.00,,,0.00,Wunderground v.1.15,2013-01-23 14:35:00,
2013-01-23 07:45:00,25.9,13.1,30.56,NNE,26,1.0,2.0,58,0.00,,,0.00,Wunderground v.1.15,2013-01-23 14:45:00,
2013-01-23 07:55:00,27.3,13.7,30.56,North,6,1.0,1.0,56,0.00,,,0.00,Wunderground v.1.15,2013-01-23 14:55:00,
2013-01-23 08:00:00,28.0,13.5,30.56,NW,323,1.0,1.0,54,0.00,,,0.00,Wunderground v.1.15,2013-01-23 15:00:00,
2013-01-23 08:10:00,29.4,13.9,30.55,NW,311,1.0,1.0,52,0.00,,,0.00,Wunderground v.1.15,2013-01-23 15:10:00,
2013-01-23 08:20:00,30.6,14.1,30.55,NW,304,0.0,0.0,50,0.00,,,0.00,Wunderground v.1.15,2013-01-23 15:20:00,
2013-01-23 08:30:00,31.4,13.9,30.55,West,274,1.0,1.0,48,0.00,,,0.00,Wunderground v.1.15,2013-01-23 15:30:00,
2013-01-23 08:40:00,31.8,13.8,30.56,West,271,1.0,1.0,47,0.00,,,0.00,Wunderground v.1.15,2013-01-23 15:40:00,
2013-01-23 08:50:00,32.1,13.6,30.55,North,3,1.0,1.0,46,0.00,,,0.00,Wunderground v.1.15,2013-01-23 15:50:00,
2013-01-23 09:00:00,33.0,13.9,30.56,NW,304,0.0,0.0,45,0.00,,,0.00,Wunderground v.1.15,2013-01-23 16:00:00,
2013-01-23 09:10:00,32.9,13.3,30.56,WSW,257,2.0,2.0,44,0.00,,,0.00,Wunderground v.1.15,2013-01-23 16:10:00,
2013-01-23 09:15:00,32.8,13.2,30.56,WNW,287,2.0,2.0,44,0.00,,,0.00,Wunderground v.1.15,2013-01-23 16:15:00,
2013-01-23 09:25:00,32.6,13.1,30.56,WNW,287,1.0,2.0,44,0.00,,,0.00,Wunderground v.1.15,2013-01-23 16:25:00,
2013-01-23 09:35:00,32.3,12.8,30.57,West,281,2.0,2.0,44,0.00,,,0.00,Wunderground v.1.15,2013-01-23 16:35:00,
2013-01-23 09:40:00,32.3,12.8,30.58,North,351,3.0,6.0,44,0.00,,,0.00,Wunderground v.1.15,2013-01-23 16:40:00,
2013-01-23 09:50:00,32.8,13.2,30.58,NW,318,2.0,2.0,44,0.00,,,0.00,Wunderground v.1.15,2013-01-23 16:50:00,
2013-01-23 10:00:00,33.7,13.5,30.57,NW,313,1.0,1.0,43,0.00,,,0.00,Wunderground v.1.15,2013-01-23 17:00:00,
2013-01-23 10:10:00,35.1,13.7,30.57,NW,318,1.0,1.0,41,0.00,,,0.00,Wunderground v.1.15,2013-01-23 17:10:00,
2013-01-23 10:15:00,36.2,14.2,30.57,NNW,348,1.0,2.0,40,0.00,,,0.00,Wunderground v.1.15,2013-01-23 17:15:00,
2013-01-23 10:25:00,37.5,14.2,30.57,NW,321,1.0,1.0,38,0.00,,,0.00,Wunderground v.1.15,2013-01-23 17:25:00,
2013-01-23 10:35:00,38.3,14.3,30.57,NW,309,1.0,3.0,37,0.00,,,0.00,Wunderground v.1.15,2013-01-23 17:35:00,
2013-01-23 10:40:00,38.8,14.1,30.57,NNE,13,1.0,2.0,36,0.00,,,0.00,Wunderground v.1.15,2013-01-23 17:40:00,
2013-01-23 10:50:00,39.7,14.2,30.57,NNE,12,2.0,2.0,35,0.00,,,0.00,Wunderground v.1.15,2013-01-23 17:50:00,
2013-01-23 11:00:00,41.3,15.0,30.57,West,281,1.0,1.0,34,0.00,,,0.00,Wunderground v.1.15,2013-01-23 18:00:00,
2013-01-23 11:10:00,42.9,14.3,30.56,WSW,243,1.0,3.0,31,0.00,,,0.00,Wunderground v.1.15,2013-01-23 18:10:00,
2013-01-23 11:15:00,43.0,14.4,30.57,WSW,242,1.0,3.0,31,0.00,,,0.00,Wunderground v.1.15,2013-01-23 18:15:00,
2013-01-23 11:25:00,43.6,14.2,30.57,WSW,242,1.0,3.0,30,0.00,,,0.00,Wunderground v.1.15,2013-01-23 18:25:00,
2013-01-23 11:35:00,44.9,14.5,30.56,West,259,1.0,2.0,29,0.00,,,0.00,Wunderground v.1.15,2013-01-23 18:35:00,
2013-01-23 11:45:00,45.5,14.2,30.56,South,188,1.0,2.0,28,0.00,,,0.00,Wunderground v.1.15,2013-01-23 18:45:00,
2013-01-23 11:50:00,46.2,14.0,30.55,SSW,194,2.0,4.0,27,0.00,,,0.00,Wunderground v.1.15,2013-01-23 18:50:00,
2013-01-23 12:00:00,47.1,14.8,30.54,East,93,2.0,2.0,27,0.00,,,0.00,Wunderground v.1.15,2013-01-23 19:00:00,
2013-01-23 12:10:00,48.3,14.1,30.53,East,91,2.0,2.0,25,0.00,,,0.00,Wunderground v.1.15,2013-01-23 19:10:00,
2013-01-23 12:20:00,49.3,14.0,30.53,South,191,3.0,3.0,24,0.00,,,0.00,Wunderground v.1.15,2013-01-23 19:20:00,
2013-01-23 12:25:00,49.7,12.3,30.52,SSE,155,3.0,3.0,22,0.00,,,0.00,Wunderground v.1.15,2013-01-23 19:25:00,
2013-01-23 12:30:00,50.1,10.5,30.51,ESE,121,2.0,5.0,20,0.00,,,0.00,Wunderground v.1.15,2013-01-23 19:30:00,
2013-01-23 12:40:00,51.3,10.4,30.50,SE,131,2.0,3.0,19,0.00,,,0.00,Wunderground v.1.15,2013-01-23 19:40:00,
2013-01-23 12:50:00,52.1,11.0,30.50,South,186,2.0,3.0,19,0.00,,,0.00,Wunderground v.1.15,2013-01-23 19:50:00,
2013-01-23 13:00:00,52.7,10.3,30.50,SSE,148,3.0,3.0,18,0.00,,,0.00,Wunderground v.1.15,2013-01-23 20:00:00,
2013-01-23 13:10:00,53.0,10.6,30.50,WSW,248,3.0,3.0,18,0.00,,,0.00,Wunderground v.1.15,2013-01-23 20:10:00,
2013-01-23 13:15:00,52.7,10.3,30.50,WSW,250,3.0,3.0,18,0.00,,,0.00,Wunderground v.1.15,2013-01-23 20:15:00,
2013-01-23 13:20:00,53.2,10.7,30.49,WSW,239,2.0,2.0,18,0.00,,,0.00,Wunderground v.1.15,2013-01-23 20:20:00,
2013-01-23 13:30:00,54.1,10.2,30.48,WSW,251,2.0,2.0,17,0.00,,,0.00,Wunderground v.1.15,2013-01-23 20:30:00,
2013-01-23 13:40:00,55.1,9.6,30.48,SSE,158,2.0,4.0,16,0.00,,,0.00,Wunderground v.1.15,2013-01-23 20:40:00,
2013-01-23 13:50:00,55.4,8.4,30.47,WNW,291,1.0,1.0,15,0.00,,,0.00,Wunderground v.1.15,2013-01-23 20:50:00,
2013-01-23 14:00:00,55.5,7.0,30.46,SE,141,1.0,1.0,14,0.00,,,0.00,Wunderground v.1.15,2013-01-23 21:00:00,
2013-01-23 14:10:00,57.1,8.3,30.46,ESE,103,0.0,1.0,14,0.00,,,0.00,Wunderground v.1.15,2013-01-23 21:10:00,
2013-01-23 14:15:00,57.4,6.9,30.45,SSE,165,1.0,3.0,13,0.00,,,0.00,Wunderground v.1.15,2013-01-23 21:15:00,
2013-01-23 14:25:00,57.2,8.3,30.46,SSW,205,2.0,2.0,14,0.00,,,0.00,Wunderground v.1.15,2013-01-23 21:25:00,
2013-01-23 14:35:00,57.3,6.8,30.45,WSW,250,2.0,2.0,13,0.00,,,0.00,Wunderground v.1.15,2013-01-23 21:35:00,
2013-01-23 14:45:00,57.7,7.1,30.45,SSW,207,1.0,2.0,13,0.00,,,0.00,Wunderground v.1.15,2013-01-23 21:45:00,
2013-01-23 14:50:00,58.2,7.5,30.45,North,354,1.0,2.0,13,0.00,,,0.00,Wunderground v.1.15,2013-01-23 21:50:00,
2013-01-23 15:00:00,57.7,7.1,30.45,NW,322,2.0,2.0,13,0.00,,,0.00,Wunderground v.1.15,2013-01-23 22:00:00,
2013-01-23 15:10:00,57.8,7.2,30.44,WNW,293,1.0,1.0,13,0.00,,,0.00,Wunderground v.1.15,2013-01-23 22:10:00,
2013-01-23 15:15:00,58.6,7.8,30.44,NW,324,1.0,1.0,13,0.00,,,0.00,Wunderground v.1.15,2013-01-23 22:15:00,
2013-01-23 15:25:00,58.5,6.0,30.44,North,353,2.0,2.0,12,0.00,,,0.00,Wunderground v.1.15,2013-01-23 22:25:00,
2013-01-23 15:35:00,59.2,6.5,30.44,NW,309,1.0,2.0,12,0.00,,,0.00,Wunderground v.1.15,2013-01-23 22:35:00,
2013-01-23 15:45:00,59.0,6.4,30.44,SW,222,1.0,2.0,12,0.00,,,0.00,Wunderground v.1.15,2013-01-23 22:45:00,
2013-01-23 15:50:00,59.6,6.8,30.44,West,273,1.0,1.0,12,0.00,,,0.00,Wunderground v.1.15,2013-01-23 22:50:00,
2013-01-23 16:00:00,60.1,7.2,30.43,WSW,245,1.0,1.0,12,0.00,,,0.00,Wunderground v.1.15,2013-01-23 23:00:00,
2013-01-23 16:10:00,59.7,6.9,30.43,NW,315,1.0,3.0,12,0.00,,,0.00,Wunderground v.1.15,2013-01-23 23:10:00,
2013-01-23 16:15:00,59.3,6.6,30.43,West,272,1.0,3.0,12,0.00,,,0.00,Wunderground v.1.15,2013-01-23 23:15:00,
2013-01-23 16:20:00,59.3,6.6,30.43,WSW,250,1.0,1.0,12,0.00,,,0.00,Wunderground v.1.15,2013-01-23 23:20:00,
2013-01-23 16:30:00,59.3,6.6,30.43,WSW,239,1.0,1.0,12,0.00,,,0.00,Wunderground v.1.15,2013-01-23 23:30:00,
2013-01-23 16:40:00,59.4,6.7,30.43,WSW,248,1.0,1.0,12,0.00,,,0.00,Wunderground v.1.15,2013-01-23 23:40:00,
2013-01-23 16:50:00,58.3,7.6,30.43,WSW,253,1.0,1.0,13,0.00,,,0.00,Wunderground v.1.15,2013-01-23 23:50:00,
2013-01-23 17:00:00,57.0,8.2,30.43,WSW,256,1.0,1.0,14,0.00,,,0.00,Wunderground v.1.15,2013-01-24 00:00:00,
2013-01-23 17:10:00,56.0,8.9,30.43,WSW,256,0.0,0.0,15,0.00,,,0.00,Wunderground v.1.15,2013-01-24 00:10:00,
2013-01-23 17:15:00,55.3,8.4,30.43,WSW,256,0.0,0.0,15,0.00,,,0.00,Wunderground v.1.15,2013-01-24 00:15:00,
2013-01-23 17:25:00,53.7,9.8,30.43,WSW,256,0.0,0.0,17,0.00,,,0.00,Wunderground v.1.15,2013-01-24 00:25:00,
2013-01-23 17:30:00,52.8,9.1,30.43,WSW,256,0.0,0.0,17,0.00,,,0.00,Wunderground v.1.15,2013-01-24 00:30:00,
2013-01-23 17:40:00,51.2,10.3,30.43,WSW,256,0.0,0.0,19,0.00,,,0.00,Wunderground v.1.15,2013-01-24 00:40:00,
2013-01-23 17:50:00,49.8,11.4,30.43,WSW,256,0.0,0.0,21,0.00,,,0.00,Wunderground v.1.15,2013-01-24 00:50:00,
2013-01-23 18:00:00,48.9,10.6,30.43,WSW,256,0.0,0.0,21,0.00,,,0.00,Wunderground v.1.15,2013-01-24 01:00:00,
2013-01-23 18:10:00,47.9,10.8,30.43,WSW,256,0.0,0.0,22,0.00,,,0.00,Wunderground v.1.15,2013-01-24 01:10:00,
2013-01-23 18:20:00,46.8,11.8,30.44,WSW,256,0.0,0.0,24,0.00,,,0.00,Wunderground v.1.15,2013-01-24 01:20:00,
2013-01-23 18:25:00,46.5,11.6,30.44,WSW,255,0.0,0.0,24,0.00,,,0.00,Wunderground v.1.15,2013-01-24 01:25:00,
2013-01-23 18:35:00,45.7,11.8,30.44,WSW,256,0.0,0.0,25,0.00,,,0.00,Wunderground v.1.15,2013-01-24 01:35:00,
2013-01-23 18:45:00,45.3,11.5,30.44,ESE,121,0.0,0.0,25,0.00,,,0.00,Wunderground v.1.15,2013-01-24 01:45:00,
2013-01-23 18:50:00,45.2,12.3,30.44,ESE,121,0.0,0.0,26,0.00,,,0.00,Wunderground v.1.15,2013-01-24 01:50:00,
2013-01-23 18:55:00,44.9,12.0,30.44,ESE,121,0.0,0.0,26,0.00,,,0.00,Wunderground v.1.15,2013-01-24 01:55:00,
2013-01-23 19:00:00,44.6,11.8,30.44,ESE,121,0.0,0.0,26,0.00,,,0.00,Wunderground v.1.15,2013-01-24 02:00:00,
2013-01-23 19:10:00,44.4,11.6,30.44,ESE,121,0.0,0.0,26,0.00,,,0.00,Wunderground v.1.15,2013-01-24 02:10:00,
2013-01-23 19:15:00,44.1,11.3,30.44,ESE,121,0.0,0.0,26,0.00,,,0.00,Wunderground v.1.15,2013-01-24 02:15:00,
2013-01-23 19:25:00,43.6,11.8,30.44,ESE,121,0.0,0.0,27,0.00,,,0.00,Wunderground v.1.15,2013-01-24 02:25:00,
2013-01-23 19:30:00,43.3,11.5,30.44,ESE,121,0.0,0.0,27,0.00,,,0.00,Wunderground v.1.15,2013-01-24 02:30:00,
2013-01-23 19:40:00,42.8,11.9,30.45,ESE,121,0.0,0.0,28,0.00,,,0.00,Wunderground v.1.15,2013-01-24 02:40:00,
2013-01-23 19:50:00,42.4,12.3,30.45,ESE,121,0.0,0.0,29,0.00,,,0.00,Wunderground v.1.15,2013-01-24 02:50:00,
2013-01-23 20:00:00,42.4,11.5,30.44,ESE,121,0.0,0.0,28,0.00,,,0.00,Wunderground v.1.15,2013-01-24 03:00:00,
2013-01-23 20:10:00,42.0,12.0,30.45,ESE,121,0.0,0.0,29,0.00,,,0.00,Wunderground v.1.15,2013-01-24 03:10:00,
2013-01-23 20:20:00,41.8,11.8,30.45,ESE,121,0.0,0.0,29,0.00,,,0.00,Wunderground v.1.15,2013-01-24 03:20:00,
2013-01-23 20:30:00,41.6,10.9,30.45,ESE,121,0.0,0.0,28,0.00,,,0.00,Wunderground v.1.15,2013-01-24 03:30:00,
2013-01-23 20:40:00,41.4,11.5,30.45,ESE,121,0.0,0.0,29,0.00,,,0.00,Wunderground v.1.15,2013-01-24 03:40:00,
2013-01-23 20:50:00,41.5,11.6,30.45,ESE,121,0.0,0.0,29,0.00,,,0.00,Wunderground v.1.15,2013-01-24 03:50:00,
2013-01-23 21:00:00,41.1,11.2,30.45,ESE,121,0.0,0.0,29,0.00,,,0.00,Wunderground v.1.15,2013-01-24 04:00:00,
2013-01-23 21:05:00,40.7,11.6,30.45,ESE,121,0.0,0.0,30,0.00,,,0.00,Wunderground v.1.15,2013-01-24 04:05:00,
2013-01-23 21:15:00,41.0,11.1,30.45,ESE,121,0.0,0.0,29,0.00,,,0.00,Wunderground v.1.15,2013-01-24 04:15:00,
2013-01-23 21:20:00,40.5,10.7,30.46,ESE,121,0.0,0.0,29,0.00,,,0.00,Wunderground v.1.15,2013-01-24 04:20:00,
2013-01-23 21:30:00,39.2,10.3,30.47,ESE,121,0.0,0.0,30,0.00,,,0.00,Wunderground v.1.15,2013-01-24 04:30:00,
2013-01-23 21:35:00,39.0,10.9,30.47,ESE,121,0.0,0.0,31,0.00,,,0.00,Wunderground v.1.15,2013-01-24 04:35:00,
2013-01-23 21:45:00,38.6,10.5,30.48,ESE,121,0.0,0.0,31,0.00,,,0.00,Wunderground v.1.15,2013-01-24 04:45:00,
2013-01-23 21:55:00,37.6,10.4,30.49,ESE,121,0.0,0.0,32,0.00,,,0.00,Wunderground v.1.15,2013-01-24 04:55:00,
2013-01-23 22:05:00,37.5,11.6,30.50,ESE,121,0.0,0.0,34,0.00,,,0.00,Wunderground v.1.15,2013-01-24 05:05:00,
2013-01-23 22:10:00,37.0,10.5,30.50,ESE,121,0.0,0.0,33,0.00,,,0.00,Wunderground v.1.15,2013-01-24 05:10:00,
2013-01-23 22:15:00,36.7,10.9,30.50,ESE,121,0.0,0.0,34,0.00,,,0.00,Wunderground v.1.15,2013-01-24 05:15:00,
2013-01-23 22:20:00,36.6,10.2,30.49,ESE,121,0.0,0.0,33,0.00,,,0.00,Wunderground v.1.15,2013-01-24 05:20:00,
2013-01-23 22:35:00,36.8,11.0,30.49,ESE,121,0.0,0.0,34,0.00,,,0.00,Wunderground v.1.15,2013-01-24 05:35:00,
2013-01-23 22:40:00,36.7,10.9,30.48,SE,124,0.0,0.0,34,0.00,,,0.00,Wunderground v.1.15,2013-01-24 05:40:00,
2013-01-23 22:45:00,36.7,10.9,30.48,SE,124,0.0,0.0,34,0.00,,,0.00,Wunderground v.1.15,2013-01-24 05:45:00,
2013-01-23 22:50:00,36.8,11.0,30.48,SE,124,0.0,0.0,34,0.00,,,0.00,Wunderground v.1.15,2013-01-24 05:50:00,
2013-01-23 23:00:00,37.3,10.8,30.48,SE,124,0.0,0.0,33,0.00,,,0.00,Wunderground v.1.15,2013-01-24 06:00:00,
2013-01-23 23:10:00,37.5,10.3,30.47,SE,124,0.0,0.0,32,0.00,,,0.00,Wunderground v.1.15,2013-01-24 06:10:00,
2013-01-23 23:20:00,37.1,10.6,30.47,SE,124,0.0,0.0,33,0.00,,,0.00,Wunderground v.1.15,2013-01-24 06:20:00,
2013-01-23 23:30:00,36.6,10.8,30.48,NW,306,0.0,2.0,34,0.00,,,0.00,Wunderground v.1.15,2013-01-24 06:30:00,
2013-01-23 23:35:00,36.8,10.3,30.48,NW,326,1.0,2.0,33,0.00,,,0.00,Wunderground v.1.15,2013-01-24 06:35:00,
2013-01-23 23:45:00,37.6,10.4,30.48,NW,311,1.0,1.0,32,0.00,,,0.00,Wunderground v.1.15,2013-01-24 06:45:00,
2013-01-23 23:55:00,36.8,9.7,30.48,NW,312,0.0,0.0,32,0.00,,,0.00,Wunderground v.1.15,2013-01-24 06:55:00,